Time;durP1;ratioP1;P1;durP2;ratioP2;P2;SDS_P1;SDS_P2;PMS_P1;PMS_P2;Temp;Humidity;BMP_temperature;BMP_pressure;BME280_temperature;BME280_humidity;BME280_pressure;Samples;Min_cycle;Max_cycle;Signal;HPM_P1;HPM_P2
2022/10/14 00:02:01;;;;;;;6.97;3.97;;;16.30;99.90;;;;;;5040464;28;20579;-84
2022/10/14 00:04:28;;;;;;;6.17;3.80;;;16.30;99.90;;;;;;5065036;28;20326;-84
2022/10/14 00:06:54;;;;;;;6.05;3.88;;;16.30;99.90;;;;;;5043705;28;20036;-84
2022/10/14 00:09:20;;;;;;;6.80;4.07;;;16.30;99.90;;;;;;5037020;28;20040;-84
2022/10/14 00:11:46;;;;;;;5.70;3.50;;;16.30;99.90;;;;;;5060926;28;20035;-84
2022/10/14 00:14:16;;;;;;;4.53;3.13;;;16.30;99.90;;;;;;5057053;28;20067;-84
2022/10/14 00:16:43;;;;;;;6.35;4.00;;;16.30;99.90;;;;;;5057626;28;20476;-84
2022/10/14 00:19:09;;;;;;;6.50;4.00;;;16.30;99.90;;;;;;5058251;28;20052;-84
2022/10/14 00:21:37;;;;;;;6.23;3.70;;;16.30;99.90;;;;;;5031190;28;20620;-84
2022/10/14 00:24:04;;;;;;;6.55;3.97;;;16.30;99.90;;;;;;5026857;28;20813;-84
2022/10/14 00:26:32;;;;;;;6.50;3.90;;;16.30;99.90;;;;;;5050450;28;20063;-84
2022/10/14 00:28:59;;;;;;;7.43;4.07;;;16.30;99.90;;;;;;5041598;28;20256;-84
2022/10/14 00:31:25;;;;;;;6.80;4.25;;;16.30;99.90;;;;;;5060350;28;20564;-84
2022/10/14 00:33:51;;;;;;;6.30;3.90;;;16.30;99.90;;;;;;5062998;28;20866;-84
2022/10/14 00:36:20;;;;;;;6.18;3.95;;;16.30;99.90;;;;;;5051135;28;20056;-84
2022/10/14 00:38:47;;;;;;;5.63;3.47;;;16.30;99.90;;;;;;5045335;28;20020;-84
2022/10/14 00:41:23;;;;;;;7.03;4.27;;;16.30;99.90;;;;;;5061419;28;20123;-84
2022/10/14 00:44:11;;;;;;;5.60;3.50;;;16.30;99.90;;;;;;5056474;28;20033;-83
2022/10/14 00:46:39;;;;;;;5.40;3.72;;;16.30;99.90;;;;;;5007103;28;20043;-84
2022/10/14 00:49:14;;;;;;;6.40;3.92;;;16.30;99.90;;;;;;5042329;28;20048;-84
2022/10/14 00:51:44;;;;;;;5.70;3.75;;;16.30;99.90;;;;;;5039325;28;20027;-83
2022/10/14 00:54:12;;;;;;;6.10;3.67;;;16.40;99.90;;;;;;5061947;28;20165;-84
2022/10/14 00:56:38;;;;;;;5.63;3.65;;;16.30;99.90;;;;;;5040811;28;20154;-84
2022/10/14 00:59:04;;;;;;;6.85;3.85;;;16.40;99.90;;;;;;5055729;28;20145;-84
2022/10/14 01:01:30;;;;;;;5.03;3.20;;;16.30;99.90;;;;;;5052763;28;20108;-85
2022/10/14 01:03:56;;;;;;;6.17;3.70;;;16.30;99.90;;;;;;5050690;28;20484;-84
2022/10/14 01:06:33;;;;;;;5.70;3.40;;;16.40;99.90;;;;;;5052630;28;20104;-85
2022/10/14 01:09:02;;;;;;;6.25;3.45;;;16.40;99.90;;;;;;5054104;28;20547;-85
2022/10/14 01:11:40;;;;;;;5.90;3.63;;;16.30;99.90;;;;;;5038523;28;20040;-85
2022/10/14 01:14:33;;;;;;;6.00;3.97;;;16.30;99.90;;;;;;5059551;28;20220;-85
2022/10/14 01:17:41;;;;;;;6.47;3.70;;;16.40;99.90;;;;;;5049584;28;20787;-85
2022/10/14 01:20:28;;;;;;;6.13;3.83;;;16.40;99.90;;;;;;4987005;28;20029;-84
2022/10/14 01:23:08;;;;;;;6.05;3.55;;;16.40;99.90;;;;;;4978632;28;20664;-85
2022/10/14 01:25:42;;;;;;;5.87;3.60;;;16.40;99.90;;;;;;5032468;28;20027;-85
2022/10/14 01:28:26;;;;;;;5.30;3.25;;;16.40;99.90;;;;;;5048953;28;20310;-85
2022/10/14 01:31:01;;;;;;;5.43;3.42;;;16.40;99.90;;;;;;5059542;28;20140;-85
2022/10/14 01:33:35;;;;;;;5.97;3.78;;;16.40;99.90;;;;;;5039124;28;20039;-85
2022/10/14 01:36:12;;;;;;;5.20;3.42;;;16.40;99.90;;;;;;5045773;28;20019;-85
2022/10/14 01:38:45;;;;;;;6.47;3.53;;;16.40;99.90;;;;;;5037996;28;20488;-85
2022/10/14 01:41:17;;;;;;;5.50;3.53;;;16.40;99.90;;;;;;5053555;28;20681;-85
2022/10/14 01:43:46;;;;;;;5.85;3.35;;;16.40;99.90;;;;;;5068016;28;20029;-85
2022/10/14 01:46:12;;;;;;;5.95;3.47;;;16.40;99.90;;;;;;5043092;28;20512;-85
2022/10/14 01:48:48;;;;;;;5.78;3.65;;;16.40;99.90;;;;;;5045834;28;20396;-85
2022/10/14 01:51:42;;;;;;;5.57;3.40;;;16.40;99.90;;;;;;5047319;28;20062;-85
2022/10/14 01:54:13;;;;;;;5.97;3.70;;;16.40;99.90;;;;;;5048100;28;20550;-85
2022/10/14 01:56:42;;;;;;;5.88;3.47;;;16.40;99.90;;;;;;5039529;28;20039;-85
2022/10/14 01:59:10;;;;;;;5.75;3.42;;;16.40;99.90;;;;;;5069495;28;20069;-85
2022/10/14 02:01:36;;;;;;;5.18;3.22;;;16.30;99.90;;;;;;5056770;28;20081;-85
2022/10/14 02:04:01;;;;;;;5.37;3.37;;;16.40;99.90;;;;;;5049973;28;20270;-85
2022/10/14 02:06:36;;;;;;;5.00;3.10;;;16.30;99.90;;;;;;5066421;28;20530;-85
2022/10/14 02:09:27;;;;;;;7.13;3.53;;;16.40;99.90;;;;;;5059593;28;20275;-85
2022/10/14 02:12:19;;;;;;;5.60;3.33;;;16.30;99.90;;;;;;5022691;28;20028;-85
2022/10/14 02:15:04;;;;;;;5.57;3.28;;;16.40;99.90;;;;;;5039231;28;20040;-85
2022/10/14 02:17:36;;;;;;;5.45;3.22;;;16.40;99.90;;;;;;5059075;28;20516;-85
2022/10/14 02:20:19;;;;;;;5.07;3.17;;;16.40;99.90;;;;;;5041310;28;20336;-85
2022/10/14 02:22:57;;;;;;;4.82;3.17;;;16.30;99.90;;;;;;5064429;28;20016;-85
2022/10/14 02:25:30;;;;;;;5.53;3.25;;;16.40;99.90;;;;;;5049230;28;20062;-85
2022/10/14 02:27:58;;;;;;;4.93;3.25;;;16.40;99.90;;;;;;5043063;28;20472;-85
2022/10/14 02:30:26;;;;;;;5.82;3.30;;;16.30;99.90;;;;;;5047758;28;20645;-85
2022/10/14 02:32:52;;;;;;;7.07;3.63;;;16.30;99.90;;;;;;5070899;28;20496;-85
2022/10/14 02:35:20;;;;;;;5.45;3.17;;;16.30;99.90;;;;;;5060490;28;20747;-85
2022/10/14 02:37:48;;;;;;;6.10;3.50;;;16.40;99.90;;;;;;5047024;28;20020;-85
2022/10/14 02:40:21;;;;;;;5.43;3.15;;;16.40;99.90;;;;;;5045515;28;20247;-85
2022/10/14 02:42:46;;;;;;;4.28;2.88;;;16.40;99.90;;;;;;5042538;28;20069;-85
2022/10/14 02:45:13;;;;;;;5.10;3.03;;;16.40;99.90;;;;;;5032836;28;20028;-85
2022/10/14 02:47:39;;;;;;;5.57;3.17;;;16.40;99.90;;;;;;5059814;28;20040;-85
2022/10/14 02:50:05;;;;;;;4.97;2.87;;;16.40;99.90;;;;;;5037256;28;20482;-85
2022/10/14 02:52:30;;;;;;;5.07;2.97;;;16.40;99.90;;;;;;5047391;28;20043;-85
2022/10/14 02:54:56;;;;;;;5.20;3.15;;;16.40;99.90;;;;;;5051934;28;20033;-85
2022/10/14 02:57:22;;;;;;;4.57;3.00;;;16.40;99.90;;;;;;5035230;28;20027;-85
2022/10/14 02:59:47;;;;;;;5.50;2.90;;;16.40;99.90;;;;;;5047532;28;20128;-85
2022/10/14 03:02:13;;;;;;;6.45;3.50;;;16.40;99.90;;;;;;5054416;28;20024;-85
2022/10/14 03:04:38;;;;;;;5.23;3.03;;;16.40;99.90;;;;;;5042326;28;20048;-85
2022/10/14 03:07:04;;;;;;;5.07;3.20;;;16.40;99.90;;;;;;5051871;28;20417;-85
2022/10/14 03:09:30;;;;;;;4.53;3.10;;;16.40;99.90;;;;;;5039995;28;20021;-85
2022/10/14 03:11:55;;;;;;;5.13;3.08;;;16.40;99.90;;;;;;5042943;28;20028;-85
2022/10/14 03:14:21;;;;;;;4.77;2.83;;;16.50;99.90;;;;;;5031527;28;20221;-85
2022/10/14 03:16:46;;;;;;;4.70;2.70;;;16.40;99.90;;;;;;5043547;28;20520;-85
2022/10/14 03:19:12;;;;;;;6.10;3.20;;;16.40;99.90;;;;;;5055107;28;20103;-85
2022/10/14 03:21:38;;;;;;;5.23;3.20;;;16.50;99.90;;;;;;5050693;28;20343;-85
2022/10/14 03:24:04;;;;;;;5.57;2.95;;;16.50;99.90;;;;;;5057895;28;20032;-85
2022/10/14 03:26:30;;;;;;;5.50;2.90;;;16.50;99.90;;;;;;5055994;28;20092;-85
2022/10/14 03:28:56;;;;;;;4.72;2.90;;;16.50;99.90;;;;;;5046160;28;20520;-85
2022/10/14 03:31:21;;;;;;;5.60;3.00;;;16.50;99.90;;;;;;5048627;28;20152;-85
2022/10/14 03:33:47;;;;;;;4.63;2.90;;;16.50;99.90;;;;;;5056755;28;20455;-85
2022/10/14 03:36:12;;;;;;;4.80;3.00;;;16.50;99.90;;;;;;5033318;28;20031;-85
2022/10/14 03:38:38;;;;;;;4.65;2.72;;;16.40;99.90;;;;;;5054929;28;20016;-86
2022/10/14 03:41:04;;;;;;;4.23;2.70;;;16.50;99.90;;;;;;5056187;28;20123;-85
2022/10/14 03:43:30;;;;;;;4.87;2.73;;;16.50;99.90;;;;;;5041891;28;20082;-85
2022/10/14 03:45:55;;;;;;;5.70;2.87;;;16.50;99.90;;;;;;5019676;28;20304;-85
2022/10/14 03:48:21;;;;;;;4.45;2.78;;;16.50;99.90;;;;;;5039539;28;20252;-85
2022/10/14 03:50:47;;;;;;;4.40;2.40;;;16.50;99.90;;;;;;5058166;28;20117;-85
2022/10/14 03:53:13;;;;;;;4.63;2.70;;;16.50;99.90;;;;;;5051825;28;20343;-85
2022/10/14 03:55:39;;;;;;;4.78;2.88;;;16.50;99.90;;;;;;5058693;28;20490;-85
2022/10/14 03:58:05;;;;;;;5.17;2.43;;;16.50;99.90;;;;;;5036433;28;20027;-84
2022/10/14 04:00:31;;;;;;;4.65;2.85;;;16.50;99.90;;;;;;5035551;28;20086;-85
2022/10/14 04:02:56;;;;;;;4.95;2.60;;;16.50;99.90;;;;;;5059999;28;20412;-85
2022/10/14 04:05:22;;;;;;;4.53;2.80;;;16.50;99.90;;;;;;5062259;28;20615;-84
2022/10/14 04:07:48;;;;;;;5.20;2.70;;;16.50;99.90;;;;;;5052255;28;20031;-85
2022/10/14 04:10:13;;;;;;;4.03;2.43;;;16.50;99.90;;;;;;5059879;28;20476;-84
2022/10/14 04:12:39;;;;;;;4.40;2.63;;;16.50;99.90;;;;;;5042488;28;20145;-85
2022/10/14 04:15:06;;;;;;;3.95;2.55;;;16.50;99.90;;;;;;5048662;28;20036;-85
2022/10/14 04:17:32;;;;;;;3.58;2.60;;;16.50;99.90;;;;;;5036964;28;20263;-85
2022/10/14 04:19:58;;;;;;;4.50;2.57;;;16.50;99.90;;;;;;5059013;28;20554;-85
2022/10/14 04:22:23;;;;;;;4.23;2.53;;;16.50;99.90;;;;;;5069035;28;20044;-85
2022/10/14 04:24:49;;;;;;;5.28;3.10;;;16.50;99.90;;;;;;5063145;28;20228;-85
2022/10/14 04:27:16;;;;;;;4.60;2.83;;;16.50;99.90;;;;;;5039865;28;20024;-85
2022/10/14 04:29:41;;;;;;;4.57;2.58;;;16.50;99.90;;;;;;5044802;28;20124;-85
2022/10/14 04:32:07;;;;;;;4.63;2.73;;;16.50;99.90;;;;;;5023723;28;20082;-85
2022/10/14 04:34:33;;;;;;;4.68;2.80;;;16.50;99.90;;;;;;5041720;28;20595;-84
2022/10/14 04:36:58;;;;;;;4.80;2.70;;;16.50;99.90;;;;;;5063694;28;20033;-85
2022/10/14 04:39:24;;;;;;;5.53;2.90;;;16.50;99.90;;;;;;5053638;28;20083;-85
2022/10/14 04:41:49;;;;;;;4.25;2.63;;;16.50;99.90;;;;;;5062728;28;20439;-85
2022/10/14 04:44:15;;;;;;;4.37;2.60;;;16.50;99.90;;;;;;5044810;28;20067;-84
2022/10/14 04:46:41;;;;;;;5.43;3.00;;;16.50;99.90;;;;;;5048808;28;24204;-85
2022/10/14 04:49:08;;;;;;;4.40;2.77;;;16.50;99.90;;;;;;5041759;28;20044;-85
2022/10/14 04:51:33;;;;;;;5.90;3.10;;;16.50;99.90;;;;;;5060780;28;20058;-85
2022/10/14 04:53:59;;;;;;;4.50;2.87;;;16.50;99.90;;;;;;5037766;28;20024;-85
2022/10/14 04:56:25;;;;;;;4.60;2.55;;;16.50;99.90;;;;;;5037849;28;20339;-85
2022/10/14 04:58:50;;;;;;;4.67;2.70;;;16.50;99.90;;;;;;5065640;28;20017;-85
2022/10/14 05:01:17;;;;;;;5.53;2.75;;;16.50;99.90;;;;;;5052016;28;20063;-85
2022/10/14 05:03:43;;;;;;;4.90;3.00;;;16.40;99.90;;;;;;5041184;28;20468;-85
2022/10/14 05:06:09;;;;;;;4.50;2.80;;;16.50;99.90;;;;;;5038964;28;20025;-85
2022/10/14 05:08:35;;;;;;;4.70;3.00;;;16.50;99.90;;;;;;5027719;28;20043;-85
2022/10/14 05:11:01;;;;;;;4.72;2.72;;;16.40;99.90;;;;;;5054249;28;20040;-85
2022/10/14 05:13:28;;;;;;;4.68;2.75;;;16.50;99.90;;;;;;5071849;28;20062;-85
2022/10/14 05:15:54;;;;;;;4.57;2.80;;;16.50;99.90;;;;;;5041774;28;20044;-85
2022/10/14 05:18:19;;;;;;;5.15;2.92;;;16.40;99.90;;;;;;5049533;28;20135;-85
2022/10/14 05:20:45;;;;;;;4.80;3.10;;;16.40;99.90;;;;;;5049906;28;20021;-85
2022/10/14 05:23:11;;;;;;;5.43;3.00;;;16.50;99.90;;;;;;5053222;28;20102;-85
2022/10/14 05:25:36;;;;;;;4.43;2.77;;;16.40;99.90;;;;;;5036140;28;20029;-85
2022/10/14 05:28:02;;;;;;;5.43;2.53;;;16.50;99.90;;;;;;5033271;28;20402;-85
2022/10/14 05:30:28;;;;;;;4.55;2.95;;;16.50;99.90;;;;;;5072416;28;20122;-85
2022/10/14 05:32:53;;;;;;;5.25;2.90;;;16.50;99.90;;;;;;5040394;28;20032;-85
2022/10/14 05:35:19;;;;;;;6.13;3.10;;;16.50;99.90;;;;;;5028980;28;20164;-85
2022/10/14 05:37:45;;;;;;;5.43;3.17;;;16.50;99.90;;;;;;5052251;28;20044;-85
2022/10/14 05:40:11;;;;;;;4.80;3.03;;;16.50;99.90;;;;;;5030705;28;20183;-85
2022/10/14 05:42:36;;;;;;;5.13;2.70;;;16.50;99.90;;;;;;5042140;28;20545;-85
2022/10/14 05:45:03;;;;;;;5.20;2.77;;;16.50;99.90;;;;;;5046335;28;20028;-85
2022/10/14 05:47:29;;;;;;;5.47;3.05;;;16.50;99.90;;;;;;5032233;28;20384;-85
2022/10/14 05:49:54;;;;;;;6.38;3.33;;;16.50;99.90;;;;;;5044533;28;20045;-85
2022/10/14 05:52:20;;;;;;;5.87;3.00;;;16.50;99.90;;;;;;5042466;28;20394;-85
2022/10/14 05:54:46;;;;;;;5.20;3.00;;;16.50;99.90;;;;;;5048477;28;20579;-85
2022/10/14 05:57:11;;;;;;;7.53;3.45;;;16.50;99.90;;;;;;5034372;28;20257;-85
2022/10/14 05:59:37;;;;;;;5.47;3.40;;;16.50;99.90;;;;;;5047834;28;20500;-85
2022/10/14 06:02:03;;;;;;;5.45;3.13;;;16.50;99.90;;;;;;5061410;28;20055;-85
2022/10/14 06:04:28;;;;;;;5.00;2.90;;;16.50;99.90;;;;;;5043048;28;20307;-85
2022/10/14 06:06:54;;;;;;;5.07;3.05;;;16.50;99.90;;;;;;5048526;28;20670;-85
2022/10/14 06:09:20;;;;;;;6.10;3.23;;;16.50;99.90;;;;;;5040720;28;20032;-85
2022/10/14 06:11:45;;;;;;;5.47;2.90;;;16.50;99.90;;;;;;5034169;28;20020;-85
2022/10/14 06:14:11;;;;;;;5.87;3.27;;;16.50;99.90;;;;;;5066353;28;20090;-85
2022/10/14 06:16:37;;;;;;;6.20;3.20;;;16.50;99.90;;;;;;5052057;28;20046;-85
2022/10/14 06:19:03;;;;;;;6.40;3.50;;;16.50;99.90;;;;;;5052579;28;20744;-85
2022/10/14 06:21:28;;;;;;;6.57;3.65;;;16.50;99.90;;;;;;5048856;28;20024;-85
2022/10/14 06:23:54;;;;;;;5.87;3.37;;;16.50;99.90;;;;;;5029418;28;20384;-85
2022/10/14 06:26:19;;;;;;;6.45;3.60;;;16.50;99.90;;;;;;5045981;28;20375;-85
2022/10/14 06:28:45;;;;;;;6.73;3.13;;;16.50;99.90;;;;;;5045508;28;20033;-85
2022/10/14 06:31:11;;;;;;;6.93;3.60;;;16.50;99.90;;;;;;5058927;28;20464;-85
2022/10/14 06:33:37;;;;;;;5.88;3.47;;;16.50;99.90;;;;;;5057146;28;20074;-85
2022/10/14 06:36:06;;;;;;;7.35;3.55;;;16.50;99.90;;;;;;5036286;28;20021;-85
2022/10/14 06:38:32;;;;;;;6.40;3.37;;;16.40;99.90;;;;;;5061891;28;20107;-85
2022/10/14 06:40:58;;;;;;;5.95;3.08;;;16.50;99.90;;;;;;5044028;28;20421;-85
2022/10/14 06:43:23;;;;;;;6.77;3.53;;;16.50;99.90;;;;;;5054510;28;20304;-85
2022/10/14 06:45:49;;;;;;;5.75;3.30;;;16.50;99.90;;;;;;5065635;28;20059;-84
2022/10/14 06:48:15;;;;;;;5.63;3.13;;;16.50;99.90;;;;;;5071561;28;20524;-85
2022/10/14 06:50:41;;;;;;;6.00;3.53;;;16.50;99.90;;;;;;5050486;28;20423;-85
2022/10/14 06:53:07;;;;;;;6.57;3.33;;;16.50;99.90;;;;;;5043379;28;20038;-84
2022/10/14 06:55:33;;;;;;;6.20;3.63;;;16.50;99.90;;;;;;5067789;28;20260;-84
2022/10/14 06:57:59;;;;;;;6.40;3.42;;;16.50;99.90;;;;;;5060627;28;20471;-84
2022/10/14 07:00:25;;;;;;;7.27;3.83;;;16.50;99.90;;;;;;5054004;28;20250;-85
2022/10/14 07:02:50;;;;;;;7.65;3.40;;;16.50;99.90;;;;;;5059996;28;20063;-85
2022/10/14 07:05:16;;;;;;;6.40;3.40;;;16.50;99.90;;;;;;5062250;28;20024;-85
2022/10/14 07:07:41;;;;;;;6.47;3.75;;;16.50;99.90;;;;;;5030759;28;20020;-85
2022/10/14 07:10:08;;;;;;;7.67;3.40;;;16.50;99.90;;;;;;5023471;28;20387;-85
2022/10/14 07:12:33;;;;;;;6.55;3.85;;;16.50;99.90;;;;;;5042059;28;20399;-85
2022/10/14 07:14:59;;;;;;;6.20;3.30;;;16.60;99.90;;;;;;5031981;28;20017;-85
2022/10/14 07:17:24;;;;;;;7.20;3.63;;;16.60;99.90;;;;;;5040836;28;20024;-84
2022/10/14 07:19:50;;;;;;;5.70;3.43;;;16.60;99.90;;;;;;5045321;28;20467;-84
2022/10/14 07:22:16;;;;;;;5.78;3.28;;;16.60;99.90;;;;;;5056247;28;20032;-84
2022/10/14 07:24:42;;;;;;;7.10;3.22;;;16.60;99.90;;;;;;5033589;28;20216;-85
2022/10/14 07:27:09;;;;;;;7.00;3.53;;;16.60;99.90;;;;;;5047453;28;20380;-85
2022/10/14 07:29:35;;;;;;;6.88;3.80;;;16.70;99.90;;;;;;5021345;28;20631;-84
2022/10/14 07:32:01;;;;;;;5.55;3.17;;;16.70;99.90;;;;;;5059908;28;20044;-84
2022/10/14 07:34:26;;;;;;;5.60;3.43;;;16.70;99.90;;;;;;5068457;28;20385;-84
2022/10/14 07:36:52;;;;;;;8.82;3.58;;;16.70;99.90;;;;;;5068371;28;20178;-85
2022/10/14 07:39:18;;;;;;;6.00;3.40;;;16.80;99.90;;;;;;5047942;28;20024;-85
2022/10/14 07:41:43;;;;;;;6.00;3.50;;;16.80;99.90;;;;;;5040188;28;20650;-85
2022/10/14 07:44:12;;;;;;;5.73;3.37;;;16.80;99.90;;;;;;5059108;28;20021;-85
2022/10/14 07:46:41;;;;;;;6.22;3.38;;;16.80;99.90;;;;;;5033581;28;20035;-85
2022/10/14 07:49:11;;;;;;;6.45;3.22;;;16.90;99.90;;;;;;5043577;28;20059;-84
2022/10/14 07:51:38;;;;;;;5.90;3.20;;;16.80;99.90;;;;;;5070994;28;20114;-84
2022/10/14 07:54:10;;;;;;;6.43;3.47;;;16.90;99.90;;;;;;5045086;28;20035;-84
2022/10/14 07:56:37;;;;;;;4.90;2.90;;;16.90;99.90;;;;;;5049060;28;20533;-84
2022/10/14 07:59:03;;;;;;;5.75;3.28;;;16.90;99.90;;;;;;5049215;28;20055;-85
2022/10/14 08:01:29;;;;;;;5.22;2.95;;;16.90;99.90;;;;;;5048476;28;20020;-84
2022/10/14 08:03:55;;;;;;;5.25;3.15;;;16.90;99.90;;;;;;5048846;28;20384;-84
2022/10/14 08:06:21;;;;;;;4.50;2.93;;;17.00;99.90;;;;;;5069219;28;20020;-84
2022/10/14 08:08:47;;;;;;;4.95;2.88;;;17.00;99.90;;;;;;5045644;28;20374;-84
2022/10/14 08:11:15;;;;;;;7.22;3.50;;;17.00;99.90;;;;;;5050923;28;20488;-84
2022/10/14 08:13:42;;;;;;;5.50;3.03;;;17.00;99.90;;;;;;5037993;28;20130;-85
2022/10/14 08:16:28;;;;;;;5.45;3.40;;;17.00;99.90;;;;;;5062367;28;20031;-84
2022/10/14 08:18:59;;;;;;;4.93;3.13;;;17.10;99.90;;;;;;5050411;28;20029;-84
2022/10/14 08:21:25;;;;;;;5.20;2.95;;;17.10;99.90;;;;;;5059095;28;20036;-84
2022/10/14 08:23:51;;;;;;;6.65;3.33;;;17.10;99.90;;;;;;5063331;28;20281;-84
2022/10/14 08:26:19;;;;;;;5.43;3.10;;;17.20;99.90;;;;;;5039726;28;20553;-84
2022/10/14 08:28:45;;;;;;;4.97;3.20;;;17.20;99.90;;;;;;5058959;28;20138;-84
2022/10/14 08:31:11;;;;;;;4.85;3.25;;;17.20;99.90;;;;;;5033496;28;20025;-85
2022/10/14 08:33:37;;;;;;;5.37;3.30;;;17.30;99.90;;;;;;5045675;28;21091;-84
2022/10/14 08:36:02;;;;;;;5.67;3.30;;;17.30;99.90;;;;;;5074712;28;20285;-84
2022/10/14 08:38:28;;;;;;;5.22;3.30;;;17.30;99.90;;;;;;5040521;28;20044;-85
2022/10/14 08:41:13;;;;;;;5.07;2.90;;;17.30;99.90;;;;;;5045255;28;20059;-84
2022/10/14 08:43:47;;;;;;;4.90;3.10;;;17.40;99.90;;;;;;5023090;28;20330;-84
2022/10/14 08:46:18;;;;;;;5.97;3.00;;;17.40;99.90;;;;;;5057592;28;20414;-84
2022/10/14 08:48:45;;;;;;;5.20;3.03;;;17.50;99.90;;;;;;5047531;28;20710;-84
2022/10/14 08:51:15;;;;;;;4.80;3.08;;;17.50;99.90;;;;;;5044426;28;20027;-85
2022/10/14 08:53:56;;;;;;;5.57;3.20;;;17.50;99.90;;;;;;5057347;28;20199;-84
2022/10/14 08:56:23;;;;;;;5.20;2.90;;;17.50;99.90;;;;;;5030186;28;20105;-84
2022/10/14 08:59:05;;;;;;;4.88;3.08;;;17.60;99.90;;;;;;5053753;28;20027;-84
2022/10/14 09:01:34;;;;;;;4.10;2.77;;;17.50;99.90;;;;;;5065710;28;20389;-84
2022/10/14 09:04:12;;;;;;;4.72;2.78;;;17.60;99.90;;;;;;5041244;28;20384;-84
2022/10/14 09:06:41;;;;;;;4.47;2.88;;;17.60;99.90;;;;;;5059992;28;20277;-84
2022/10/14 09:09:21;;;;;;;4.65;3.10;;;17.60;99.90;;;;;;5073214;28;20020;-84
2022/10/14 09:12:01;;;;;;;4.10;2.55;;;17.60;99.90;;;;;;5032763;28;20036;-85
2022/10/14 09:14:34;;;;;;;4.27;2.77;;;17.60;99.90;;;;;;5026117;28;20259;-84
2022/10/14 09:17:25;;;;;;;4.47;2.85;;;17.60;99.90;;;;;;5049829;28;20031;-84
2022/10/14 09:19:57;;;;;;;4.97;2.92;;;17.70;99.90;;;;;;5059659;28;20099;-84
2022/10/14 09:22:23;;;;;;;4.28;2.63;;;17.70;99.90;;;;;;5059549;28;20283;-84
2022/10/14 09:24:48;;;;;;;4.43;2.70;;;17.70;99.90;;;;;;5064872;28;20028;-84
2022/10/14 09:27:23;;;;;;;4.07;2.60;;;17.80;99.90;;;;;;5027010;28;20121;-84
2022/10/14 09:29:59;;;;;;;4.20;2.90;;;17.80;99.90;;;;;;5049952;28;20058;-84
2022/10/14 09:32:36;;;;;;;3.83;2.38;;;17.80;99.90;;;;;;5060218;28;20090;-84
2022/10/14 09:35:02;;;;;;;3.57;2.30;;;17.80;99.90;;;;;;5043851;28;20074;-84
2022/10/14 09:37:33;;;;;;;3.03;2.13;;;17.80;99.90;;;;;;5038951;28;20382;-85
2022/10/14 09:40:03;;;;;;;2.88;2.00;;;17.80;99.90;;;;;;5066691;28;20110;-85
2022/10/14 09:42:57;;;;;;;3.55;2.25;;;17.80;99.90;;;;;;5033195;28;20058;-84
2022/10/14 09:45:24;;;;;;;3.13;2.05;;;17.80;99.90;;;;;;5032508;28;20056;-84
2022/10/14 09:47:58;;;;;;;4.20;2.30;;;17.80;99.90;;;;;;5041906;28;20136;-84
2022/10/14 09:50:51;;;;;;;3.97;2.20;;;17.80;99.90;;;;;;5058047;28;20158;-85
2022/10/14 09:53:40;;;;;;;3.60;2.10;;;17.80;99.90;;;;;;5035871;28;20056;-85
2022/10/14 09:56:09;;;;;;;2.80;2.03;;;17.80;99.90;;;;;;5062206;28;20381;-84
2022/10/14 09:58:43;;;;;;;4.03;2.30;;;17.80;99.90;;;;;;5061303;28;24499;-84
2022/10/14 10:01:18;;;;;;;3.13;2.00;;;17.80;99.90;;;;;;5051512;28;20143;-85
2022/10/14 10:03:45;;;;;;;3.42;2.25;;;17.80;99.90;;;;;;5069461;28;20027;-85
2022/10/14 10:06:14;;;;;;;3.90;2.50;;;17.80;99.90;;;;;;5053464;28;20078;-85
2022/10/14 10:09:00;;;;;;;3.65;2.30;;;17.80;99.90;;;;;;5051761;28;20020;-85
2022/10/14 10:11:36;;;;;;;3.47;2.03;;;17.80;99.90;;;;;;5050572;28;20228;-85
2022/10/14 10:14:21;;;;;;;2.90;1.83;;;17.80;99.90;;;;;;5045257;28;20086;-85
2022/10/14 10:16:48;;;;;;;2.25;1.70;;;17.80;99.90;;;;;;5062901;28;20094;-86
2022/10/14 10:19:28;;;;;;;3.00;1.98;;;17.80;99.90;;;;;;5048999;28;20028;-84
2022/10/14 10:22:13;;;;;;;3.35;2.13;;;17.90;99.90;;;;;;5041825;28;20519;-84
2022/10/14 10:24:39;;;;;;;2.88;1.90;;;17.90;99.90;;;;;;5035948;28;20253;-85
2022/10/14 10:27:25;;;;;;;3.20;2.10;;;17.90;99.90;;;;;;5054805;28;20210;-85
2022/10/14 10:29:55;;;;;;;2.55;1.80;;;17.90;99.90;;;;;;5052161;28;20031;-85
2022/10/14 10:32:41;;;;;;;4.60;2.53;;;18.00;99.90;;;;;;5067859;28;20099;-85
2022/10/14 10:35:10;;;;;;;2.67;1.90;;;18.00;99.90;;;;;;5058978;28;20055;-85
2022/10/14 10:37:51;;;;;;;2.40;1.80;;;18.00;99.90;;;;;;5041333;28;20456;-85
2022/10/14 10:40:31;;;;;;;3.17;1.70;;;18.00;99.90;;;;;;5050330;28;20189;-85
2022/10/14 10:43:02;;;;;;;2.50;1.83;;;18.00;99.90;;;;;;5061703;28;20016;-85
2022/10/14 10:45:53;;;;;;;2.28;1.63;;;18.00;99.90;;;;;;5030816;28;20029;-86
2022/10/14 10:48:37;;;;;;;1.58;1.27;;;18.00;99.90;;;;;;5071039;28;20464;-88
2022/10/14 10:51:27;;;;;;;2.03;1.50;;;18.00;99.90;;;;;;5038570;28;20429;-86
2022/10/14 10:54:26;;;;;;;2.45;1.63;;;18.10;99.90;;;;;;5034585;28;20021;-86
2022/10/14 10:56:54;;;;;;;2.40;1.55;;;18.00;99.90;;;;;;5051832;28;20031;-86
2022/10/14 10:59:50;;;;;;;2.65;1.52;;;18.00;99.90;;;;;;5050215;28;20064;-87
2022/10/14 11:02:38;;;;;;;2.00;1.50;;;18.00;99.90;;;;;;5051816;28;20032;-87
2022/10/14 11:05:22;;;;;;;2.37;1.40;;;18.10;99.90;;;;;;5055199;28;20138;-86
2022/10/14 11:14:36;;;;;;;1.95;1.45;;;18.10;99.90;;;;;;5061267;28;20595;-87
2022/10/14 11:17:14;;;;;;;2.45;1.60;;;18.10;99.90;;;;;;5029247;28;20218;-87
2022/10/14 11:19:57;;;;;;;2.10;1.50;;;18.10;99.90;;;;;;5059919;28;20448;-87
2022/10/14 11:22:46;;;;;;;1.70;1.33;;;18.00;99.90;;;;;;5040333;28;20518;-87
2022/10/14 11:25:18;;;;;;;2.63;1.48;;;18.00;99.90;;;;;;5060820;28;20028;-87
2022/10/14 11:27:56;;;;;;;2.22;1.65;;;18.00;99.90;;;;;;5063306;28;20089;-87
2022/10/14 11:30:36;;;;;;;2.03;1.40;;;18.00;99.90;;;;;;5054729;28;20123;-88
2022/10/14 11:33:24;;;;;;;2.50;1.50;;;18.00;99.90;;;;;;5034664;28;20029;-87
2022/10/14 11:36:13;;;;;;;2.00;1.40;;;18.00;99.90;;;;;;5019147;28;20324;-87
2022/10/14 11:39:01;;;;;;;2.60;1.60;;;18.00;99.90;;;;;;5039333;28;20110;-87
2022/10/14 11:41:52;;;;;;;2.25;1.42;;;18.00;99.90;;;;;;5056466;28;20044;-87
2022/10/14 11:44:47;;;;;;;2.80;1.50;;;18.10;99.90;;;;;;5067513;28;20067;-87
2022/10/14 11:47:30;;;;;;;2.30;1.60;;;18.10;99.90;;;;;;5029124;28;20039;-87
2022/10/14 11:50:02;;;;;;;2.95;1.60;;;18.10;99.90;;;;;;5037260;28;20893;-87
2022/10/14 11:52:34;;;;;;;2.38;1.40;;;18.10;99.90;;;;;;5040536;28;20028;-88
2022/10/14 11:55:17;;;;;;;2.50;1.38;;;18.20;99.90;;;;;;5038907;28;20017;-87
2022/10/14 11:57:52;;;;;;;2.03;1.40;;;18.20;99.90;;;;;;5046548;28;20012;-87
2022/10/14 12:00:21;;;;;;;3.70;1.57;;;18.20;99.90;;;;;;5038382;28;20016;-87
2022/10/14 12:03:01;;;;;;;2.70;1.60;;;18.20;99.90;;;;;;5026349;28;20661;-86
2022/10/14 12:05:58;;;;;;;1.75;1.30;;;18.20;99.90;;;;;;5048458;28;20723;-87
2022/10/14 12:08:47;;;;;;;2.17;1.38;;;18.30;99.90;;;;;;5051476;28;20032;-88
2022/10/14 12:11:40;;;;;;;1.75;1.30;;;18.20;99.90;;;;;;5034393;28;20507;-87
2022/10/14 12:14:20;;;;;;;2.70;1.53;;;18.30;99.90;;;;;;5067210;28;20459;-87
2022/10/14 12:16:47;;;;;;;2.08;1.58;;;18.40;99.90;;;;;;5070584;28;20040;-87
2022/10/14 12:19:25;;;;;;;2.83;1.90;;;18.40;99.90;;;;;;5041830;28;20027;-88
2022/10/14 12:22:09;;;;;;;2.80;1.83;;;18.60;99.90;;;;;;5059654;28;20012;-88
2022/10/14 12:24:40;;;;;;;4.15;2.20;;;18.80;99.90;;;;;;5055493;28;20591;-88
2022/10/14 12:27:09;;;;;;;3.10;2.10;;;18.90;99.90;;;;;;5033398;28;20487;-88
2022/10/14 12:29:43;;;;;;;3.67;2.15;;;19.10;99.90;;;;;;5050499;28;20028;-86
2022/10/14 12:32:15;;;;;;;3.30;2.22;;;19.20;99.90;;;;;;5048993;28;20028;-89
2022/10/14 12:34:42;;;;;;;2.70;1.90;;;19.20;99.90;;;;;;5049328;28;20432;-87
2022/10/14 12:37:23;;;;;;;3.60;2.30;;;19.30;99.90;;;;;;5050812;28;20027;-88
2022/10/14 12:39:53;;;;;;;3.43;2.37;;;19.30;99.90;;;;;;5043467;28;20032;-87
2022/10/14 12:42:20;;;;;;;3.50;2.38;;;19.30;99.90;;;;;;5051780;28;20050;-88
2022/10/14 12:44:50;;;;;;;3.90;2.65;;;19.30;99.90;;;;;;5032326;28;20127;-88
2022/10/14 12:47:22;;;;;;;3.88;2.55;;;19.20;99.90;;;;;;5065623;28;20102;-88
2022/10/14 12:49:51;;;;;;;4.28;2.58;;;19.20;99.90;;;;;;5031948;28;20135;-88
2022/10/14 12:52:24;;;;;;;3.87;2.50;;;19.20;99.90;;;;;;5041256;28;20607;-88
2022/10/14 12:54:50;;;;;;;6.00;2.92;;;19.20;99.90;;;;;;5046362;28;20020;-88
2022/10/14 12:57:30;;;;;;;3.75;2.60;;;19.30;99.90;;;;;;5056048;28;20032;-88
2022/10/14 13:00:06;;;;;;;3.75;2.53;;;19.30;99.90;;;;;;5056962;28;20024;-88
2022/10/14 13:02:42;;;;;;;4.40;2.80;;;19.30;99.90;;;;;;5075251;27;20036;-88
2022/10/14 13:05:21;;;;;;;4.00;2.80;;;19.40;99.90;;;;;;5036916;28;20032;-88
2022/10/14 13:08:10;;;;;;;3.90;2.80;;;19.40;99.90;;;;;;5041251;28;20405;-89
2022/10/14 13:10:38;;;;;;;4.28;2.67;;;19.50;99.90;;;;;;5059131;28;20020;-88
2022/10/14 13:13:46;;;;;;;4.32;2.75;;;19.50;99.90;;;;;;5054059;28;20569;-88
2022/10/14 13:16:24;;;;;;;4.90;2.70;;;19.60;99.90;;;;;;5060470;28;20052;-87